sensor_id;sensor_type;location;lat;lon;timestamp;temperature;humidity
66835;HTU21D;53743;51.100;5.874;2023-06-26T00:00:17;24.71;63.43
66835;HTU21D;53743;51.100;5.874;2023-06-26T00:01:20;24.70;63.44
66835;HTU21D;53743;51.100;5.874;2023-06-26T00:02:22;24.69;63.52
66835;HTU21D;53743;51.100;5.874;2023-06-26T00:03:24;24.66;63.48
66835;HTU21D;53743;51.100;5.874;2023-06-26T00:04:26;24.65;63.56
66835;HTU21D;53743;51.100;5.874;2023-06-26T00:05:27;24.64;63.54
66835;HTU21D;53743;51.100;5.874;2023-06-26T00:06:31;24.64;63.56
66835;HTU21D;53743;51.100;5.874;2023-06-26T00:07:32;24.61;63.63
66835;HTU21D;53743;51.100;5.874;2023-06-26T00:08:35;24.60;63.69
66835;HTU21D;53743;51.100;5.874;2023-06-26T00:09:36;24.58;63.78
66835;HTU21D;53743;51.100;5.874;2023-06-26T00:10:40;24.56;63.82
66835;HTU21D;53743;51.100;5.874;2023-06-26T00:11:41;24.56;63.98
66835;HTU21D;53743;51.100;5.874;2023-06-26T00:12:43;24.54;63.99
66835;HTU21D;53743;51.100;5.874;2023-06-26T00:13:44;24.54;63.83
66835;HTU21D;53743;51.100;5.874;2023-06-26T00:14:46;24.51;64.01
66835;HTU21D;53743;51.100;5.874;2023-06-26T00:15:47;24.53;63.95
66835;HTU21D;53743;51.100;5.874;2023-06-26T00:16:49;24.50;63.98
66835;HTU21D;53743;51.100;5.874;2023-06-26T00:17:50;24.50;63.76
66835;HTU21D;53743;51.100;5.874;2023-06-26T00:18:54;24.48;63.85
66835;HTU21D;53743;51.100;5.874;2023-06-26T00:19:55;24.48;63.76
66835;HTU21D;53743;51.100;5.874;2023-06-26T00:20:57;24.46;63.87
66835;HTU21D;53743;51.100;5.874;2023-06-26T00:21:58;24.43;63.89
66835;HTU21D;53743;51.100;5.874;2023-06-26T00:23:00;24.43;63.96
66835;HTU21D;53743;51.100;5.874;2023-06-26T00:24:01;24.42;64.12
66835;HTU21D;53743;51.100;5.874;2023-06-26T00:25:04;24.39;64.24
66835;HTU21D;53743;51.100;5.874;2023-06-26T00:26:10;24.38;64.48
66835;HTU21D;53743;51.100;5.874;2023-06-26T00:27:12;24.34;64.46
66835;HTU21D;53743;51.100;5.874;2023-06-26T00:28:13;24.32;64.57
66835;HTU21D;53743;51.100;5.874;2023-06-26T00:29:15;24.31;64.43
66835;HTU21D;53743;51.100;5.874;2023-06-26T00:30:17;24.31;64.44
66835;HTU21D;53743;51.100;5.874;2023-06-26T00:31:19;24.28;64.57
66835;HTU21D;53743;51.100;5.874;2023-06-26T00:32:20;24.28;64.60
66835;HTU21D;53743;51.100;5.874;2023-06-26T00:33:22;24.28;64.59
66835;HTU21D;53743;51.100;5.874;2023-06-26T00:34:25;24.27;64.57
66835;HTU21D;53743;51.100;5.874;2023-06-26T00:35:27;24.26;64.66
66835;HTU21D;53743;51.100;5.874;2023-06-26T00:36:28;24.24;64.64
66835;HTU21D;53743;51.100;5.874;2023-06-26T00:37:31;24.21;64.79
66835;HTU21D;53743;51.100;5.874;2023-06-26T00:38:33;24.19;64.64
66835;HTU21D;53743;51.100;5.874;2023-06-26T00:39:36;24.17;65.01
66835;HTU21D;53743;51.100;5.874;2023-06-26T00:40:37;24.16;65.08
66835;HTU21D;53743;51.100;5.874;2023-06-26T00:41:40;24.16;64.91
66835;HTU21D;53743;51.100;5.874;2023-06-26T00:42:42;24.12;65.32
66835;HTU21D;53743;51.100;5.874;2023-06-26T00:43:44;24.09;64.88
66835;HTU21D;53743;51.100;5.874;2023-06-26T00:44:45;24.03;64.97
66835;HTU21D;53743;51.100;5.874;2023-06-26T00:45:47;24.00;64.92
66835;HTU21D;53743;51.100;5.874;2023-06-26T00:46:48;23.98;64.83
66835;HTU21D;53743;51.100;5.874;2023-06-26T00:47:50;23.97;64.76
66835;HTU21D;53743;51.100;5.874;2023-06-26T00:48:52;23.94;64.69
66835;HTU21D;53743;51.100;5.874;2023-06-26T00:49:56;23.94;64.79
66835;HTU21D;53743;51.100;5.874;2023-06-26T00:50:58;23.90;64.61
66835;HTU21D;53743;51.100;5.874;2023-06-26T00:52:00;23.89;64.56
66835;HTU21D;53743;51.100;5.874;2023-06-26T00:53:01;23.90;64.58
66835;HTU21D;53743;51.100;5.874;2023-06-26T00:54:04;23.89;64.54
66835;HTU21D;53743;51.100;5.874;2023-06-26T00:55:06;23.89;64.30
66835;HTU21D;53743;51.100;5.874;2023-06-26T00:56:11;23.90;64.27
66835;HTU21D;53743;51.100;5.874;2023-06-26T00:57:14;23.89;64.06
66835;HTU21D;53743;51.100;5.874;2023-06-26T00:58:16;23.90;64.11
66835;HTU21D;53743;51.100;5.874;2023-06-26T00:59:17;23.89;64.09
66835;HTU21D;53743;51.100;5.874;2023-06-26T01:00:19;23.90;64.11
66835;HTU21D;53743;51.100;5.874;2023-06-26T01:01:20;23.89;64.08
66835;HTU21D;53743;51.100;5.874;2023-06-26T01:02:26;23.87;63.99
66835;HTU21D;53743;51.100;5.874;2023-06-26T01:03:33;23.87;63.85
66835;HTU21D;53743;51.100;5.874;2023-06-26T01:04:38;23.88;64.00
66835;HTU21D;53743;51.100;5.874;2023-06-26T01:05:48;23.88;63.85
66835;HTU21D;53743;51.100;5.874;2023-06-26T01:06:52;23.89;63.69
66835;HTU21D;53743;51.100;5.874;2023-06-26T01:07:57;23.89;63.60
66835;HTU21D;53743;51.100;5.874;2023-06-26T01:10:10;23.87;63.25
66835;HTU21D;53743;51.100;5.874;2023-06-26T01:11:13;23.87;63.08
66835;HTU21D;53743;51.100;5.874;2023-06-26T01:12:17;23.88;62.99
66835;HTU21D;53743;51.100;5.874;2023-06-26T01:13:19;23.88;62.95
66835;HTU21D;53743;51.100;5.874;2023-06-26T01:14:23;23.90;62.84
66835;HTU21D;53743;51.100;5.874;2023-06-26T01:15:24;23.88;62.73
66835;HTU21D;53743;51.100;5.874;2023-06-26T01:16:29;23.88;62.93
66835;HTU21D;53743;51.100;5.874;2023-06-26T01:17:32;23.87;62.67
66835;HTU21D;53743;51.100;5.874;2023-06-26T01:18:37;23.89;62.48
66835;HTU21D;53743;51.100;5.874;2023-06-26T01:19:43;23.86;62.49
66835;HTU21D;53743;51.100;5.874;2023-06-26T01:20:46;23.88;62.39
66835;HTU21D;53743;51.100;5.874;2023-06-26T01:21:54;23.88;62.47
66835;HTU21D;53743;51.100;5.874;2023-06-26T01:23:07;23.88;62.44
66835;HTU21D;53743;51.100;5.874;2023-06-26T01:24:17;23.86;62.51
66835;HTU21D;53743;51.100;5.874;2023-06-26T01:25:33;23.87;62.28
66835;HTU21D;53743;51.100;5.874;2023-06-26T01:26:44;23.86;62.44
66835;HTU21D;53743;51.100;5.874;2023-06-26T01:27:52;23.85;62.51
66835;HTU21D;53743;51.100;5.874;2023-06-26T01:28:58;23.86;62.47
66835;HTU21D;53743;51.100;5.874;2023-06-26T01:30:03;23.84;62.60
66835;HTU21D;53743;51.100;5.874;2023-06-26T01:31:10;23.86;62.37
66835;HTU21D;53743;51.100;5.874;2023-06-26T01:32:13;23.86;62.46
66835;HTU21D;53743;51.100;5.874;2023-06-26T01:33:15;23.85;62.34
66835;HTU21D;53743;51.100;5.874;2023-06-26T01:34:17;23.83;62.30
66835;HTU21D;53743;51.100;5.874;2023-06-26T01:35:19;23.83;62.41
66835;HTU21D;53743;51.100;5.874;2023-06-26T01:36:22;23.82;62.60
66835;HTU21D;53743;51.100;5.874;2023-06-26T01:37:23;23.81;62.59
66835;HTU21D;53743;51.100;5.874;2023-06-26T01:38:25;23.73;63.16
66835;HTU21D;53743;51.100;5.874;2023-06-26T01:39:26;23.71;63.19
66835;HTU21D;53743;51.100;5.874;2023-06-26T01:40:28;23.70;63.31
66835;HTU21D;53743;51.100;5.874;2023-06-26T01:41:30;23.69;63.30
66835;HTU21D;53743;51.100;5.874;2023-06-26T01:42:34;23.69;63.37
66835;HTU21D;53743;51.100;5.874;2023-06-26T01:43:43;23.68;63.15
66835;HTU21D;53743;51.100;5.874;2023-06-26T01:45:09;23.62;63.68
66835;HTU21D;53743;51.100;5.874;2023-06-26T01:46:20;23.64;63.61
66835;HTU21D;53743;51.100;5.874;2023-06-26T01:47:30;23.56;64.16
66835;HTU21D;53743;51.100;5.874;2023-06-26T01:48:44;23.56;64.05
66835;HTU21D;53743;51.100;5.874;2023-06-26T01:49:56;23.52;64.18
66835;HTU21D;53743;51.100;5.874;2023-06-26T01:51:06;23.56;63.95
66835;HTU21D;53743;51.100;5.874;2023-06-26T01:52:20;23.53;64.19
66835;HTU21D;53743;51.100;5.874;2023-06-26T01:53:38;23.51;64.63
66835;HTU21D;53743;51.100;5.874;2023-06-26T01:54:53;23.50;64.42
66835;HTU21D;53743;51.100;5.874;2023-06-26T01:56:01;23.51;64.48
66835;HTU21D;53743;51.100;5.874;2023-06-26T01:57:10;23.47;64.53
66835;HTU21D;53743;51.100;5.874;2023-06-26T01:58:14;23.49;64.77
66835;HTU21D;53743;51.100;5.874;2023-06-26T01:59:19;23.47;64.56
66835;HTU21D;53743;51.100;5.874;2023-06-26T02:00:22;23.44;64.98
66835;HTU21D;53743;51.100;5.874;2023-06-26T02:01:26;23.43;64.56
66835;HTU21D;53743;51.100;5.874;2023-06-26T02:02:28;23.40;65.14
66835;HTU21D;53743;51.100;5.874;2023-06-26T02:03:31;23.42;64.73
66835;HTU21D;53743;51.100;5.874;2023-06-26T02:04:34;23.42;64.91
66835;HTU21D;53743;51.100;5.874;2023-06-26T02:05:36;23.43;64.89
66835;HTU21D;53743;51.100;5.874;2023-06-26T02:06:38;23.44;65.36
66835;HTU21D;53743;51.100;5.874;2023-06-26T02:07:39;23.42;64.82
66835;HTU21D;53743;51.100;5.874;2023-06-26T02:08:42;23.42;65.12
66835;HTU21D;53743;51.100;5.874;2023-06-26T02:09:43;23.41;64.91
66835;HTU21D;53743;51.100;5.874;2023-06-26T02:10:45;23.41;64.97
66835;HTU21D;53743;51.100;5.874;2023-06-26T02:11:46;23.43;64.86
66835;HTU21D;53743;51.100;5.874;2023-06-26T02:12:48;23.40;65.15
66835;HTU21D;53743;51.100;5.874;2023-06-26T02:13:50;23.38;65.30
66835;HTU21D;53743;51.100;5.874;2023-06-26T02:14:52;23.36;66.02
66835;HTU21D;53743;51.100;5.874;2023-06-26T02:15:58;23.35;65.70
66835;HTU21D;53743;51.100;5.874;2023-06-26T02:17:00;23.32;65.84
66835;HTU21D;53743;51.100;5.874;2023-06-26T02:18:01;23.36;65.52
66835;HTU21D;53743;51.100;5.874;2023-06-26T02:19:03;23.32;65.51
66835;HTU21D;53743;51.100;5.874;2023-06-26T02:20:05;23.32;65.39
66835;HTU21D;53743;51.100;5.874;2023-06-26T02:21:10;23.31;65.69
66835;HTU21D;53743;51.100;5.874;2023-06-26T02:22:12;23.34;65.28
66835;HTU21D;53743;51.100;5.874;2023-06-26T02:23:15;23.37;65.25
66835;HTU21D;53743;51.100;5.874;2023-06-26T02:24:16;23.30;65.40
66835;HTU21D;53743;51.100;5.874;2023-06-26T02:25:18;23.28;65.46
66835;HTU21D;53743;51.100;5.874;2023-06-26T02:26:19;23.29;65.27
66835;HTU21D;53743;51.100;5.874;2023-06-26T02:27:21;23.32;64.72
66835;HTU21D;53743;51.100;5.874;2023-06-26T02:28:23;23.30;64.69
66835;HTU21D;53743;51.100;5.874;2023-06-26T02:29:26;23.27;64.59
66835;HTU21D;53743;51.100;5.874;2023-06-26T02:30:27;23.30;64.40
66835;HTU21D;53743;51.100;5.874;2023-06-26T02:31:29;23.34;64.11
66835;HTU21D;53743;51.100;5.874;2023-06-26T02:32:30;23.34;63.93
66835;HTU21D;53743;51.100;5.874;2023-06-26T02:33:32;23.35;63.73
66835;HTU21D;53743;51.100;5.874;2023-06-26T02:34:34;23.37;63.71
66835;HTU21D;53743;51.100;5.874;2023-06-26T02:35:36;23.36;63.50
66835;HTU21D;53743;51.100;5.874;2023-06-26T02:36:37;23.32;63.25
66835;HTU21D;53743;51.100;5.874;2023-06-26T02:37:40;23.25;63.94
66835;HTU21D;53743;51.100;5.874;2023-06-26T02:38:41;23.24;63.56
66835;HTU21D;53743;51.100;5.874;2023-06-26T02:39:43;23.28;63.14
66835;HTU21D;53743;51.100;5.874;2023-06-26T02:40:45;23.30;62.78
66835;HTU21D;53743;51.100;5.874;2023-06-26T02:41:48;23.28;62.02
66835;HTU21D;53743;51.100;5.874;2023-06-26T02:42:50;23.26;61.31
66835;HTU21D;53743;51.100;5.874;2023-06-26T02:43:53;23.28;60.96
66835;HTU21D;53743;51.100;5.874;2023-06-26T02:44:55;23.27;59.86
66835;HTU21D;53743;51.100;5.874;2023-06-26T02:45:58;23.27;59.86
66835;HTU21D;53743;51.100;5.874;2023-06-26T02:46:59;23.27;60.00
66835;HTU21D;53743;51.100;5.874;2023-06-26T02:48:01;23.29;59.76
66835;HTU21D;53743;51.100;5.874;2023-06-26T02:49:04;23.26;59.43
66835;HTU21D;53743;51.100;5.874;2023-06-26T02:50:07;23.25;59.56
66835;HTU21D;53743;51.100;5.874;2023-06-26T02:51:27;23.18;59.92
66835;HTU21D;53743;51.100;5.874;2023-06-26T02:52:30;23.20;59.77
66835;HTU21D;53743;51.100;5.874;2023-06-26T02:53:31;23.18;59.91
66835;HTU21D;53743;51.100;5.874;2023-06-26T02:54:33;23.16;60.14
66835;HTU21D;53743;51.100;5.874;2023-06-26T02:55:38;23.17;60.15
66835;HTU21D;53743;51.100;5.874;2023-06-26T02:56:40;23.14;60.33
66835;HTU21D;53743;51.100;5.874;2023-06-26T02:57:43;23.10;60.70
66835;HTU21D;53743;51.100;5.874;2023-06-26T02:58:44;23.07;60.75
66835;HTU21D;53743;51.100;5.874;2023-06-26T02:59:46;23.06;60.96
66835;HTU21D;53743;51.100;5.874;2023-06-26T03:00:49;23.09;60.81
66835;HTU21D;53743;51.100;5.874;2023-06-26T03:01:53;23.08;60.74
66835;HTU21D;53743;51.100;5.874;2023-06-26T03:02:58;23.08;60.84
66835;HTU21D;53743;51.100;5.874;2023-06-26T03:04:00;23.07;60.98
66835;HTU21D;53743;51.100;5.874;2023-06-26T03:05:01;23.00;61.92
66835;HTU21D;53743;51.100;5.874;2023-06-26T03:06:05;22.95;61.90
66835;HTU21D;53743;51.100;5.874;2023-06-26T03:07:06;22.88;62.53
66835;HTU21D;53743;51.100;5.874;2023-06-26T03:08:08;22.90;61.82
66835;HTU21D;53743;51.100;5.874;2023-06-26T03:09:09;22.87;62.17
66835;HTU21D;53743;51.100;5.874;2023-06-26T03:10:12;22.93;61.64
66835;HTU21D;53743;51.100;5.874;2023-06-26T03:11:16;22.88;61.68
66835;HTU21D;53743;51.100;5.874;2023-06-26T03:12:19;22.82;61.95
66835;HTU21D;53743;51.100;5.874;2023-06-26T03:13:21;22.82;61.74
66835;HTU21D;53743;51.100;5.874;2023-06-26T03:14:22;22.78;61.67
66835;HTU21D;53743;51.100;5.874;2023-06-26T03:15:25;22.78;61.38
66835;HTU21D;53743;51.100;5.874;2023-06-26T03:16:28;22.76;61.33
66835;HTU21D;53743;51.100;5.874;2023-06-26T03:17:30;22.72;60.99
66835;HTU21D;53743;51.100;5.874;2023-06-26T03:18:38;22.72;60.73
66835;HTU21D;53743;51.100;5.874;2023-06-26T03:19:40;22.70;60.57
66835;HTU21D;53743;51.100;5.874;2023-06-26T03:21:01;22.67;60.57
66835;HTU21D;53743;51.100;5.874;2023-06-26T03:22:04;22.64;60.64
66835;HTU21D;53743;51.100;5.874;2023-06-26T03:23:05;22.63;60.45
66835;HTU21D;53743;51.100;5.874;2023-06-26T03:24:10;22.62;60.34
66835;HTU21D;53743;51.100;5.874;2023-06-26T03:25:11;22.58;60.32
66835;HTU21D;53743;51.100;5.874;2023-06-26T03:26:13;22.61;60.16
66835;HTU21D;53743;51.100;5.874;2023-06-26T03:27:15;22.64;59.85
66835;HTU21D;53743;51.100;5.874;2023-06-26T03:28:18;22.62;59.88
66835;HTU21D;53743;51.100;5.874;2023-06-26T03:29:20;22.60;59.89
66835;HTU21D;53743;51.100;5.874;2023-06-26T03:30:22;22.57;60.05
66835;HTU21D;53743;51.100;5.874;2023-06-26T03:31:27;22.55;60.06
66835;HTU21D;53743;51.100;5.874;2023-06-26T03:32:29;22.55;59.94
66835;HTU21D;53743;51.100;5.874;2023-06-26T03:33:31;22.55;60.24
66835;HTU21D;53743;51.100;5.874;2023-06-26T03:34:33;22.54;60.23
66835;HTU21D;53743;51.100;5.874;2023-06-26T03:35:35;22.56;60.07
66835;HTU21D;53743;51.100;5.874;2023-06-26T03:36:37;22.57;60.09
66835;HTU21D;53743;51.100;5.874;2023-06-26T03:37:39;22.56;60.39
66835;HTU21D;53743;51.100;5.874;2023-06-26T03:38:41;22.54;60.30
66835;HTU21D;53743;51.100;5.874;2023-06-26T03:39:43;22.53;60.62
66835;HTU21D;53743;51.100;5.874;2023-06-26T03:40:45;22.54;60.61
66835;HTU21D;53743;51.100;5.874;2023-06-26T03:41:47;22.57;60.57
66835;HTU21D;53743;51.100;5.874;2023-06-26T03:42:48;22.57;60.59
66835;HTU21D;53743;51.100;5.874;2023-06-26T03:43:50;22.56;60.79
66835;HTU21D;53743;51.100;5.874;2023-06-26T03:44:54;22.53;61.05
66835;HTU21D;53743;51.100;5.874;2023-06-26T03:45:56;22.55;60.93
66835;HTU21D;53743;51.100;5.874;2023-06-26T03:47:01;22.54;61.09
66835;HTU21D;53743;51.100;5.874;2023-06-26T03:48:03;22.54;61.44
66835;HTU21D;53743;51.100;5.874;2023-06-26T03:49:06;22.54;61.37
66835;HTU21D;53743;51.100;5.874;2023-06-26T03:50:09;22.55;61.43
66835;HTU21D;53743;51.100;5.874;2023-06-26T03:51:11;22.54;61.61
66835;HTU21D;53743;51.100;5.874;2023-06-26T03:52:13;22.60;61.41
66835;HTU21D;53743;51.100;5.874;2023-06-26T03:53:15;22.58;61.46
66835;HTU21D;53743;51.100;5.874;2023-06-26T03:54:16;22.56;61.58
66835;HTU21D;53743;51.100;5.874;2023-06-26T03:55:18;22.54;61.47
66835;HTU21D;53743;51.100;5.874;2023-06-26T03:56:20;22.50;61.69
66835;HTU21D;53743;51.100;5.874;2023-06-26T03:57:23;22.50;61.89
66835;HTU21D;53743;51.100;5.874;2023-06-26T03:58:24;22.52;61.73
66835;HTU21D;53743;51.100;5.874;2023-06-26T03:59:27;22.55;61.85
66835;HTU21D;53743;51.100;5.874;2023-06-26T04:00:28;22.50;61.97
66835;HTU21D;53743;51.100;5.874;2023-06-26T04:01:30;22.46;62.75
66835;HTU21D;53743;51.100;5.874;2023-06-26T04:02:32;22.44;62.73
66835;HTU21D;53743;51.100;5.874;2023-06-26T04:03:34;22.49;62.70
66835;HTU21D;53743;51.100;5.874;2023-06-26T04:04:35;22.46;62.37
66835;HTU21D;53743;51.100;5.874;2023-06-26T04:05:37;22.48;62.20
66835;HTU21D;53743;51.100;5.874;2023-06-26T04:06:39;22.47;62.68
66835;HTU21D;53743;51.100;5.874;2023-06-26T04:07:41;22.50;62.24
66835;HTU21D;53743;51.100;5.874;2023-06-26T04:08:42;22.48;62.85
66835;HTU21D;53743;51.100;5.874;2023-06-26T04:09:44;22.44;62.42
66835;HTU21D;53743;51.100;5.874;2023-06-26T04:10:45;22.49;62.29
66835;HTU21D;53743;51.100;5.874;2023-06-26T04:11:48;22.50;62.21
66835;HTU21D;53743;51.100;5.874;2023-06-26T04:12:51;22.52;62.04
66835;HTU21D;53743;51.100;5.874;2023-06-26T04:13:53;22.50;62.01
66835;HTU21D;53743;51.100;5.874;2023-06-26T04:14:54;22.48;62.08
66835;HTU21D;53743;51.100;5.874;2023-06-26T04:15:56;22.46;62.41
66835;HTU21D;53743;51.100;5.874;2023-06-26T04:16:58;22.43;62.23
66835;HTU21D;53743;51.100;5.874;2023-06-26T04:18:03;22.41;62.46
66835;HTU21D;53743;51.100;5.874;2023-06-26T04:19:04;22.44;62.16
66835;HTU21D;53743;51.100;5.874;2023-06-26T04:20:08;22.46;62.28
66835;HTU21D;53743;51.100;5.874;2023-06-26T04:21:10;22.43;62.33
66835;HTU21D;53743;51.100;5.874;2023-06-26T04:22:14;22.43;62.24
66835;HTU21D;53743;51.100;5.874;2023-06-26T04:23:15;22.49;62.15
66835;HTU21D;53743;51.100;5.874;2023-06-26T04:24:17;22.50;62.33
66835;HTU21D;53743;51.100;5.874;2023-06-26T04:25:18;22.53;62.19
66835;HTU21D;53743;51.100;5.874;2023-06-26T04:26:20;22.57;62.00
66835;HTU21D;53743;51.100;5.874;2023-06-26T04:27:21;22.57;62.24
66835;HTU21D;53743;51.100;5.874;2023-06-26T04:28:23;22.60;62.28
66835;HTU21D;53743;51.100;5.874;2023-06-26T04:29:25;22.62;62.04
66835;HTU21D;53743;51.100;5.874;2023-06-26T04:30:28;22.66;62.32
66835;HTU21D;53743;51.100;5.874;2023-06-26T04:31:30;22.75;61.81
66835;HTU21D;53743;51.100;5.874;2023-06-26T04:32:32;22.79;61.73
66835;HTU21D;53743;51.100;5.874;2023-06-26T04:33:35;22.79;61.49
66835;HTU21D;53743;51.100;5.874;2023-06-26T04:34:37;22.80;61.66
66835;HTU21D;53743;51.100;5.874;2023-06-26T04:35:41;22.83;61.34
66835;HTU21D;53743;51.100;5.874;2023-06-26T04:36:45;22.88;61.13
66835;HTU21D;53743;51.100;5.874;2023-06-26T04:37:48;22.91;61.17
66835;HTU21D;53743;51.100;5.874;2023-06-26T04:38:50;22.93;61.08
66835;HTU21D;53743;51.100;5.874;2023-06-26T04:39:51;22.99;60.91
66835;HTU21D;53743;51.100;5.874;2023-06-26T04:40:53;23.09;60.34
66835;HTU21D;53743;51.100;5.874;2023-06-26T04:41:54;23.13;60.15
66835;HTU21D;53743;51.100;5.874;2023-06-26T04:42:56;23.16;60.37
66835;HTU21D;53743;51.100;5.874;2023-06-26T04:43:58;23.15;60.54
66835;HTU21D;53743;51.100;5.874;2023-06-26T04:45:00;23.18;60.11
66835;HTU21D;53743;51.100;5.874;2023-06-26T04:46:03;23.20;60.18
66835;HTU21D;53743;51.100;5.874;2023-06-26T04:47:05;23.24;60.00
66835;HTU21D;53743;51.100;5.874;2023-06-26T04:48:09;23.18;60.39
66835;HTU21D;53743;51.100;5.874;2023-06-26T04:49:12;23.13;60.42
66835;HTU21D;53743;51.100;5.874;2023-06-26T04:50:14;23.09;60.44
66835;HTU21D;53743;51.100;5.874;2023-06-26T04:51:19;23.08;60.76
66835;HTU21D;53743;51.100;5.874;2023-06-26T04:52:21;23.05;60.67
66835;HTU21D;53743;51.100;5.874;2023-06-26T04:53:23;23.08;60.75
66835;HTU21D;53743;51.100;5.874;2023-06-26T04:54:25;23.08;60.78
66835;HTU21D;53743;51.100;5.874;2023-06-26T04:55:28;23.12;60.47
66835;HTU21D;53743;51.100;5.874;2023-06-26T04:56:29;23.12;60.62
66835;HTU21D;53743;51.100;5.874;2023-06-26T04:57:31;23.12;60.62
66835;HTU21D;53743;51.100;5.874;2023-06-26T04:58:32;23.16;60.68
66835;HTU21D;53743;51.100;5.874;2023-06-26T04:59:34;23.31;60.44
66835;HTU21D;53743;51.100;5.874;2023-06-26T05:00:35;23.55;59.73
66835;HTU21D;53743;51.100;5.874;2023-06-26T05:01:38;23.89;58.47
66835;HTU21D;53743;51.100;5.874;2023-06-26T05:02:40;24.24;57.13
66835;HTU21D;53743;51.100;5.874;2023-06-26T05:03:42;24.63;56.01
66835;HTU21D;53743;51.100;5.874;2023-06-26T05:04:47;25.04;54.20
66835;HTU21D;53743;51.100;5.874;2023-06-26T05:05:49;25.34;53.04
66835;HTU21D;53743;51.100;5.874;2023-06-26T05:06:50;25.62;52.41
66835;HTU21D;53743;51.100;5.874;2023-06-26T05:07:53;25.86;50.53
66835;HTU21D;53743;51.100;5.874;2023-06-26T05:08:54;26.07;50.36
66835;HTU21D;53743;51.100;5.874;2023-06-26T05:09:56;26.12;49.82
66835;HTU21D;53743;51.100;5.874;2023-06-26T05:10:57;26.11;49.70
66835;HTU21D;53743;51.100;5.874;2023-06-26T05:12:00;26.05;49.59
66835;HTU21D;53743;51.100;5.874;2023-06-26T05:13:03;25.76;50.21
66835;HTU21D;53743;51.100;5.874;2023-06-26T05:14:06;25.46;51.21
66835;HTU21D;53743;51.100;5.874;2023-06-26T05:15:09;25.19;51.96
66835;HTU21D;53743;51.100;5.874;2023-06-26T05:16:11;24.92;52.98
66835;HTU21D;53743;51.100;5.874;2023-06-26T05:17:14;24.75;53.65
66835;HTU21D;53743;51.100;5.874;2023-06-26T05:18:15;24.57;54.55
66835;HTU21D;53743;51.100;5.874;2023-06-26T05:19:17;24.49;55.35
66835;HTU21D;53743;51.100;5.874;2023-06-26T05:20:20;24.61;55.49
66835;HTU21D;53743;51.100;5.874;2023-06-26T05:21:22;24.97;54.65
66835;HTU21D;53743;51.100;5.874;2023-06-26T05:22:26;25.38;53.38
66835;HTU21D;53743;51.100;5.874;2023-06-26T05:23:31;25.86;51.52
66835;HTU21D;53743;51.100;5.874;2023-06-26T05:24:35;26.32;50.41
66835;HTU21D;53743;51.100;5.874;2023-06-26T05:25:38;26.80;48.54
66835;HTU21D;53743;51.100;5.874;2023-06-26T05:26:42;27.20;47.06
66835;HTU21D;53743;51.100;5.874;2023-06-26T05:27:44;27.51;45.80
66835;HTU21D;53743;51.100;5.874;2023-06-26T05:28:46;27.73;45.01
66835;HTU21D;53743;51.100;5.874;2023-06-26T05:29:49;27.88;44.53
66835;HTU21D;53743;51.100;5.874;2023-06-26T05:30:52;27.95;43.96
66835;HTU21D;53743;51.100;5.874;2023-06-26T05:31:56;27.95;44.17
66835;HTU21D;53743;51.100;5.874;2023-06-26T05:32:59;27.85;44.08
66835;HTU21D;53743;51.100;5.874;2023-06-26T05:34:03;27.73;44.42
66835;HTU21D;53743;51.100;5.874;2023-06-26T05:35:09;27.61;44.66
66835;HTU21D;53743;51.100;5.874;2023-06-26T05:36:13;27.47;45.21
66835;HTU21D;53743;51.100;5.874;2023-06-26T05:37:20;27.46;45.35
66835;HTU21D;53743;51.100;5.874;2023-06-26T05:38:23;27.60;45.07
66835;HTU21D;53743;51.100;5.874;2023-06-26T05:39:26;27.72;44.61
66835;HTU21D;53743;51.100;5.874;2023-06-26T05:40:27;27.86;44.40
66835;HTU21D;53743;51.100;5.874;2023-06-26T05:41:30;27.98;44.20
66835;HTU21D;53743;51.100;5.874;2023-06-26T05:42:34;28.16;43.82
66835;HTU21D;53743;51.100;5.874;2023-06-26T05:43:35;28.41;43.71
66835;HTU21D;53743;51.100;5.874;2023-06-26T05:44:37;28.70;42.42
66835;HTU21D;53743;51.100;5.874;2023-06-26T05:45:38;28.99;42.15
66835;HTU21D;53743;51.100;5.874;2023-06-26T05:46:41;29.20;41.25
66835;HTU21D;53743;51.100;5.874;2023-06-26T05:47:42;29.26;40.98
66835;HTU21D;53743;51.100;5.874;2023-06-26T05:48:44;29.32;40.92
66835;HTU21D;53743;51.100;5.874;2023-06-26T05:49:45;29.34;40.76
66835;HTU21D;53743;51.100;5.874;2023-06-26T05:50:48;29.41;40.57
66835;HTU21D;53743;51.100;5.874;2023-06-26T05:51:52;29.39;39.70
66835;HTU21D;53743;51.100;5.874;2023-06-26T05:52:54;29.51;40.11
66835;HTU21D;53743;51.100;5.874;2023-06-26T05:53:57;29.70;39.72
66835;HTU21D;53743;51.100;5.874;2023-06-26T05:54:59;29.78;39.60
66835;HTU21D;53743;51.100;5.874;2023-06-26T05:56:02;29.92;39.27
66835;HTU21D;53743;51.100;5.874;2023-06-26T05:57:05;30.08;38.70
66835;HTU21D;53743;51.100;5.874;2023-06-26T05:58:10;30.26;38.37
66835;HTU21D;53743;51.100;5.874;2023-06-26T05:59:15;30.35;37.72
66835;HTU21D;53743;51.100;5.874;2023-06-26T06:00:18;30.35;37.82
66835;HTU21D;53743;51.100;5.874;2023-06-26T06:01:21;30.25;37.58
66835;HTU21D;53743;51.100;5.874;2023-06-26T06:02:24;30.06;37.77
66835;HTU21D;53743;51.100;5.874;2023-06-26T06:03:25;30.01;38.08
66835;HTU21D;53743;51.100;5.874;2023-06-26T06:04:27;30.10;38.24
66835;HTU21D;53743;51.100;5.874;2023-06-26T06:05:28;30.30;38.04
66835;HTU21D;53743;51.100;5.874;2023-06-26T06:06:30;30.54;37.41
66835;HTU21D;53743;51.100;5.874;2023-06-26T06:07:33;30.75;36.69
66835;HTU21D;53743;51.100;5.874;2023-06-26T06:08:36;30.95;36.50
66835;HTU21D;53743;51.100;5.874;2023-06-26T06:09:37;31.15;36.08
66835;HTU21D;53743;51.100;5.874;2023-06-26T06:10:40;31.27;35.95
66835;HTU21D;53743;51.100;5.874;2023-06-26T06:11:41;31.37;35.05
66835;HTU21D;53743;51.100;5.874;2023-06-26T06:12:43;31.42;35.00
66835;HTU21D;53743;51.100;5.874;2023-06-26T06:13:44;31.45;35.10
66835;HTU21D;53743;51.100;5.874;2023-06-26T06:14:46;31.50;35.05
66835;HTU21D;53743;51.100;5.874;2023-06-26T06:15:48;31.50;34.38
66835;HTU21D;53743;51.100;5.874;2023-06-26T06:16:50;31.59;34.98
66835;HTU21D;53743;51.100;5.874;2023-06-26T06:17:51;31.70;34.38
66835;HTU21D;53743;51.100;5.874;2023-06-26T06:18:53;31.83;34.54
66835;HTU21D;53743;51.100;5.874;2023-06-26T06:19:55;31.90;34.29
66835;HTU21D;53743;51.100;5.874;2023-06-26T06:20:57;31.93;33.86
66835;HTU21D;53743;51.100;5.874;2023-06-26T06:21:58;31.83;33.19
66835;HTU21D;53743;51.100;5.874;2023-06-26T06:23:01;31.78;33.83
66835;HTU21D;53743;51.100;5.874;2023-06-26T06:24:03;31.82;34.12
66835;HTU21D;53743;51.100;5.874;2023-06-26T06:25:06;31.98;33.82
66835;HTU21D;53743;51.100;5.874;2023-06-26T06:26:07;32.15;33.64
66835;HTU21D;53743;51.100;5.874;2023-06-26T06:27:09;32.34;33.38
66835;HTU21D;53743;51.100;5.874;2023-06-26T06:28:11;32.53;32.85
66835;HTU21D;53743;51.100;5.874;2023-06-26T06:29:13;32.75;31.99
66835;HTU21D;53743;51.100;5.874;2023-06-26T06:30:14;32.83;31.78
66835;HTU21D;53743;51.100;5.874;2023-06-26T06:31:16;32.91;31.66
66835;HTU21D;53743;51.100;5.874;2023-06-26T06:32:17;32.94;31.82